createdAt,value
2022-08-26T00:00:02.782Z,3.90
2022-08-26T00:01:02.770Z,3.20
2022-08-26T00:02:02.815Z,3.60
2022-08-26T00:03:02.745Z,3.10
2022-08-26T00:04:02.799Z,3.60
2022-08-26T00:05:02.718Z,3.30
2022-08-26T00:06:02.714Z,3.60
2022-08-26T00:07:02.700Z,3.60
2022-08-26T00:08:02.682Z,3.60
2022-08-26T00:09:02.660Z,3.60
2022-08-26T00:10:03.649Z,3.50
2022-08-26T00:11:02.635Z,3.90
2022-08-26T00:12:02.638Z,3.70
2022-08-26T00:13:02.609Z,3.70
2022-08-26T00:14:02.599Z,3.40
2022-08-26T00:15:02.589Z,3.60
2022-08-26T00:16:02.568Z,3.80
2022-08-26T00:17:02.614Z,3.60
2022-08-26T00:18:02.548Z,4.10
2022-08-26T00:19:02.530Z,3.80
2022-08-26T00:20:02.518Z,3.70
2022-08-26T00:21:06.265Z,3.60
2022-08-26T00:22:02.500Z,3.90
2022-08-26T00:23:02.477Z,3.40
2022-08-26T00:24:02.470Z,3.60
2022-08-26T00:25:02.449Z,4.10
2022-08-26T00:26:02.441Z,3.30
2022-08-26T00:27:02.429Z,3.60
2022-08-26T00:28:02.418Z,4.20
2022-08-26T00:29:02.412Z,4.30
2022-08-26T00:30:02.388Z,3.60
2022-08-26T00:31:02.378Z,3.30
2022-08-26T00:32:02.411Z,3.80
2022-08-26T00:33:02.354Z,3.60
2022-08-26T00:34:02.341Z,3.50
2022-08-26T00:35:02.327Z,3.60
2022-08-26T00:36:02.309Z,4.10
2022-08-26T00:37:02.299Z,4.00
2022-08-26T00:38:02.287Z,3.90
2022-08-26T00:39:02.269Z,3.70
2022-08-26T00:40:05.266Z,4.10
2022-08-26T00:41:02.242Z,4.10
2022-08-26T00:42:02.298Z,4.00
2022-08-26T00:43:02.218Z,3.90
2022-08-26T00:44:03.202Z,3.90
2022-08-26T00:45:02.187Z,3.80
2022-08-26T00:46:03.224Z,4.10
2022-08-26T00:47:02.189Z,4.40
2022-08-26T00:48:02.148Z,4.10
2022-08-26T00:49:02.147Z,4.50
2022-08-26T00:50:02.128Z,4.00
2022-08-26T00:51:02.113Z,4.10
2022-08-26T00:52:02.106Z,4.00
2022-08-26T00:53:02.081Z,3.70
2022-08-26T00:54:02.071Z,3.60
2022-08-26T00:55:02.061Z,4.10
2022-08-26T00:56:02.038Z,4.20
2022-08-26T00:57:02.038Z,4.10
2022-08-26T00:58:02.022Z,4.40
2022-08-26T00:59:02.016Z,4.20
2022-08-26T01:00:01.987Z,4.00
2022-08-26T01:01:02.024Z,4.00
2022-08-26T01:02:02.678Z,4.70
2022-08-26T01:03:01.960Z,4.50
2022-08-26T01:04:01.940Z,3.70
2022-08-26T01:05:03.371Z,4.40
2022-08-26T01:06:01.918Z,4.10
2022-08-26T01:07:01.909Z,4.00
2022-08-26T01:08:01.886Z,4.40
2022-08-26T01:09:01.886Z,4.10
2022-08-26T01:10:01.867Z,4.30
2022-08-26T01:11:01.848Z,4.00
2022-08-26T01:12:01.848Z,4.30
2022-08-26T01:13:01.818Z,3.90
2022-08-26T01:14:01.808Z,4.50
2022-08-26T01:15:01.799Z,4.10
2022-08-26T01:16:01.805Z,3.80
2022-08-26T01:17:01.779Z,4.50
2022-08-26T01:18:01.757Z,4.60
2022-08-26T01:19:01.742Z,4.30
2022-08-26T01:20:01.738Z,4.30
2022-08-26T01:21:01.717Z,4.70
2022-08-26T01:22:01.715Z,4.40
2022-08-26T01:23:03.224Z,4.50
2022-08-26T01:24:01.676Z,4.10
2022-08-26T01:25:03.398Z,4.60
2022-08-26T01:26:01.655Z,4.10
2022-08-26T01:27:01.672Z,4.40
2022-08-26T01:28:01.655Z,4.60
2022-08-26T01:29:01.616Z,4.60
2022-08-26T01:30:01.596Z,4.80
2022-08-26T01:31:01.595Z,4.20
2022-08-26T01:32:01.583Z,4.10
2022-08-26T01:33:01.644Z,4.10
2022-08-26T01:34:01.545Z,4.10
2022-08-26T01:35:01.534Z,4.20
2022-08-26T01:36:01.524Z,4.10
2022-08-26T01:37:01.532Z,4.10
2022-08-26T01:38:01.497Z,3.80
2022-08-26T01:39:01.485Z,3.50
2022-08-26T01:40:01.513Z,4.10
2022-08-26T01:41:01.455Z,3.60
2022-08-26T01:42:03.125Z,4.20
2022-08-26T01:43:01.498Z,4.30
2022-08-26T01:44:01.416Z,4.10
2022-08-26T01:45:01.408Z,7.60
2022-08-26T01:46:01.461Z,4.40
2022-08-26T01:47:01.397Z,4.10
2022-08-26T01:48:01.365Z,3.90
2022-08-26T01:49:01.354Z,4.10
2022-08-26T01:50:01.334Z,4.10
2022-08-26T01:51:01.332Z,4.50
2022-08-26T01:52:01.326Z,4.60
2022-08-26T01:53:01.294Z,3.90
2022-08-26T01:54:01.275Z,3.90
2022-08-26T01:55:01.274Z,4.00
2022-08-26T01:56:01.258Z,4.50
2022-08-26T01:57:01.254Z,3.70
2022-08-26T01:58:01.233Z,3.80
2022-08-26T01:59:01.214Z,3.90
2022-08-26T02:00:01.203Z,4.30
2022-08-26T02:01:01.217Z,4.30
2022-08-26T02:02:01.194Z,4.40
2022-08-26T02:03:01.225Z,4.10
2022-08-26T02:04:22.191Z,3.90
2022-08-26T02:05:01.153Z,4.70
2022-08-26T02:06:01.134Z,4.30
2022-08-26T02:07:01.124Z,4.30
2022-08-26T02:08:01.106Z,4.50
2022-08-26T02:09:01.088Z,4.70
2022-08-26T02:10:01.072Z,4.10
2022-08-26T02:11:01.074Z,4.80
2022-08-26T02:12:01.070Z,4.80
2022-08-26T02:13:01.091Z,4.30
2022-08-26T02:14:01.014Z,4.10
2022-08-26T02:15:01.007Z,4.00
2022-08-26T02:16:01.020Z,4.10
2022-08-26T02:17:00.983Z,3.80
2022-08-26T02:18:00.972Z,4.40
2022-08-26T02:19:00.964Z,4.30
2022-08-26T02:20:00.943Z,4.50
2022-08-26T02:21:00.926Z,4.30
2022-08-26T02:22:00.918Z,4.80
2022-08-26T02:23:00.961Z,4.90
2022-08-26T02:24:00.904Z,4.30
2022-08-26T02:25:00.883Z,5.00
2022-08-26T02:26:00.866Z,4.80
2022-08-26T02:27:00.852Z,4.80
2022-08-26T02:28:00.874Z,4.60
2022-08-26T02:29:00.832Z,4.90
2022-08-26T02:30:00.832Z,4.70
2022-08-26T02:31:00.794Z,5.00
2022-08-26T02:32:00.790Z,4.90
2022-08-26T02:33:00.767Z,4.90
2022-08-26T02:34:00.752Z,4.50
2022-08-26T02:35:00.751Z,5.50
2022-08-26T02:36:00.743Z,5.40
2022-08-26T02:37:00.728Z,5.20
2022-08-26T02:38:00.727Z,5.70
2022-08-26T02:39:00.700Z,5.00
2022-08-26T02:40:00.709Z,5.90
2022-08-26T02:41:00.664Z,6.00
2022-08-26T02:42:00.661Z,5.30
2022-08-26T02:43:00.631Z,5.20
2022-08-26T02:44:00.629Z,5.90
2022-08-26T02:45:00.611Z,5.40
2022-08-26T02:46:02.185Z,6.60
2022-08-26T02:47:00.622Z,7.60
2022-08-26T02:48:00.583Z,6.50
2022-08-26T02:49:00.572Z,6.50
2022-08-26T02:50:00.553Z,6.10
2022-08-26T02:51:00.544Z,6.10
2022-08-26T02:52:00.529Z,6.50
2022-08-26T02:53:00.547Z,6.40
2022-08-26T02:54:00.491Z,6.20
2022-08-26T02:55:00.482Z,7.70
2022-08-26T02:56:00.469Z,7.40
2022-08-26T02:57:00.465Z,7.40
2022-08-26T02:58:00.448Z,7.50
2022-08-26T02:59:00.881Z,8.10
2022-08-26T03:00:00.415Z,7.30
2022-08-26T03:01:00.451Z,7.50
2022-08-26T03:02:00.477Z,8.40
2022-08-26T03:03:00.379Z,7.80
2022-08-26T03:04:00.369Z,7.60
2022-08-26T03:05:01.898Z,9.10
2022-08-26T03:06:00.339Z,9.70
2022-08-26T03:07:00.335Z,8.60
2022-08-26T03:08:00.326Z,9.40
2022-08-26T03:09:00.306Z,8.20
2022-08-26T03:10:00.283Z,8.50
2022-08-26T03:11:01.683Z,9.20
2022-08-26T03:12:00.261Z,8.70
2022-08-26T03:13:00.250Z,8.40
2022-08-26T03:14:01.853Z,10.10
2022-08-26T03:15:00.218Z,9.90
2022-08-26T03:16:00.219Z,10.70
2022-08-26T03:17:00.218Z,10.20
2022-08-26T03:18:00.179Z,11.40
2022-08-26T03:19:00.177Z,10.50
2022-08-26T03:20:00.165Z,11.50
2022-08-26T03:21:00.152Z,12.30
2022-08-26T03:22:00.119Z,13.20
2022-08-26T03:23:00.130Z,13.10
2022-08-26T03:24:00.415Z,13.50
2022-08-26T03:25:00.088Z,12.70
2022-08-26T03:26:00.087Z,12.20
2022-08-26T03:27:00.060Z,13.40
2022-08-26T03:28:01.068Z,14.30
2022-08-26T03:29:00.045Z,14.30
2022-08-26T03:30:00.051Z,14.50
2022-08-26T03:31:00.066Z,15.80
2022-08-26T03:31:59.989Z,16.70
2022-08-26T03:32:59.988Z,17.50
2022-08-26T03:33:59.995Z,18.60
2022-08-26T03:34:59.947Z,18.30
2022-08-26T03:35:59.939Z,18.40
2022-08-26T03:36:59.937Z,18.50
2022-08-26T03:37:59.917Z,18.60
2022-08-26T03:38:59.908Z,19.10
2022-08-26T03:39:59.995Z,19.40
2022-08-26T03:40:59.888Z,17.50
2022-08-26T03:41:59.868Z,18.10
2022-08-26T03:42:59.847Z,18.90
2022-08-26T03:44:01.806Z,18.60
2022-08-26T03:44:59.838Z,20.40
2022-08-26T03:45:59.818Z,20.30
2022-08-26T03:46:59.805Z,23.00
2022-08-26T03:47:59.777Z,21.00
2022-08-26T03:48:59.777Z,23.10
2022-08-26T03:49:59.756Z,23.20
2022-08-26T03:50:59.768Z,21.50
2022-08-26T03:51:59.743Z,21.10
2022-08-26T03:52:59.706Z,21.80
2022-08-26T03:53:59.709Z,22.80
2022-08-26T03:54:59.694Z,22.80
2022-08-26T03:55:59.693Z,22.60
2022-08-26T03:56:59.676Z,22.60
2022-08-26T03:57:59.672Z,22.60
2022-08-26T03:58:59.653Z,23.40
2022-08-26T03:59:59.625Z,23.60
2022-08-26T04:00:59.827Z,21.00
2022-08-26T04:01:59.669Z,24.10
2022-08-26T04:02:59.634Z,24.90
2022-08-26T04:04:00.424Z,24.80
2022-08-26T04:04:59.566Z,25.00
2022-08-26T04:05:59.547Z,25.80
2022-08-26T04:06:59.554Z,24.40
2022-08-26T04:07:59.525Z,25.30
2022-08-26T04:08:59.505Z,24.50
2022-08-26T04:09:59.485Z,25.40
2022-08-26T04:10:59.485Z,25.20
2022-08-26T04:11:59.500Z,27.30
2022-08-26T04:12:59.498Z,26.70
2022-08-26T04:13:59.434Z,26.70
2022-08-26T04:14:59.434Z,25.20
2022-08-26T04:15:59.453Z,27.20
2022-08-26T04:16:59.419Z,26.30
2022-08-26T04:17:59.405Z,27.50
2022-08-26T04:18:59.383Z,28.20
2022-08-26T04:19:59.364Z,28.00
2022-08-26T04:20:59.363Z,26.00
2022-08-26T04:21:59.332Z,26.60
2022-08-26T04:22:59.335Z,29.00
2022-08-26T04:23:59.303Z,26.40
2022-08-26T04:24:59.294Z,29.40
2022-08-26T04:25:59.283Z,29.20
2022-08-26T04:26:59.274Z,29.40
2022-08-26T04:27:59.255Z,28.50
2022-08-26T04:28:59.263Z,29.90
2022-08-26T04:29:59.223Z,28.80
2022-08-26T04:30:59.257Z,29.30
2022-08-26T04:31:59.204Z,30.20
2022-08-26T04:32:59.183Z,29.70
2022-08-26T04:33:59.202Z,29.60
2022-08-26T04:34:59.171Z,31.30
2022-08-26T04:35:59.154Z,29.30
2022-08-26T04:36:59.141Z,31.40
2022-08-26T04:37:59.123Z,30.40
2022-08-26T04:38:59.124Z,30.70
2022-08-26T04:39:59.129Z,31.50
2022-08-26T04:40:59.096Z,31.40
2022-08-26T04:41:59.081Z,32.40
2022-08-26T04:42:59.062Z,32.40
2022-08-26T04:43:59.043Z,30.90
2022-08-26T04:44:59.041Z,31.70
2022-08-26T04:45:59.083Z,32.40
2022-08-26T04:46:59.012Z,31.50
2022-08-26T04:47:58.994Z,32.10
2022-08-26T04:48:58.997Z,33.00
2022-08-26T04:49:58.982Z,32.60
2022-08-26T04:50:58.952Z,33.50
2022-08-26T04:51:58.942Z,33.10
2022-08-26T04:52:58.935Z,32.30
2022-08-26T04:53:58.911Z,33.60
2022-08-26T04:54:58.904Z,34.90
2022-08-26T04:55:58.903Z,33.60
2022-08-26T04:56:58.881Z,33.20
2022-08-26T04:57:58.861Z,33.30
2022-08-26T04:58:58.860Z,34.20
2022-08-26T04:59:58.836Z,33.60
2022-08-26T05:00:58.843Z,34.30
2022-08-26T05:01:58.885Z,33.40
2022-08-26T05:02:58.791Z,33.80
2022-08-26T05:03:58.798Z,32.30
2022-08-26T05:04:58.788Z,32.00
2022-08-26T05:05:58.755Z,33.10
2022-08-26T05:07:02.825Z,31.70
2022-08-26T05:07:58.729Z,33.50
2022-08-26T05:08:58.722Z,35.20
2022-08-26T05:09:58.713Z,35.20
2022-08-26T05:10:58.700Z,34.60
2022-08-26T05:11:58.696Z,35.20
2022-08-26T05:12:58.670Z,34.40
2022-08-26T05:14:02.112Z,35.00
2022-08-26T05:14:58.641Z,33.70
2022-08-26T05:16:01.226Z,34.60
2022-08-26T05:16:58.619Z,33.60
2022-08-26T05:17:58.609Z,34.50
2022-08-26T05:18:58.592Z,33.10
2022-08-26T05:19:58.569Z,33.80
2022-08-26T05:20:58.559Z,32.90
2022-08-26T05:21:58.539Z,33.70
2022-08-26T05:22:58.567Z,33.00
2022-08-26T05:23:58.520Z,33.80
2022-08-26T05:24:58.519Z,32.10
2022-08-26T05:25:59.446Z,33.50
2022-08-26T05:26:58.488Z,32.70
2022-08-26T05:27:58.468Z,33.20
2022-08-26T05:28:59.019Z,32.50
2022-08-26T05:29:58.450Z,32.70
2022-08-26T05:30:58.462Z,33.90
2022-08-26T05:31:58.419Z,32.80
2022-08-26T05:32:58.410Z,33.20
2022-08-26T05:33:58.399Z,32.60
2022-08-26T05:34:58.625Z,32.80
2022-08-26T05:35:58.359Z,32.60
2022-08-26T05:36:58.356Z,32.60
2022-08-26T05:37:58.338Z,32.80
2022-08-26T05:38:58.341Z,32.60
2022-08-26T05:39:58.346Z,31.50
2022-08-26T05:40:58.300Z,33.00
2022-08-26T05:41:58.278Z,32.50
2022-08-26T05:42:58.276Z,32.50
2022-08-26T05:43:58.279Z,32.70
2022-08-26T05:44:58.247Z,33.80
2022-08-26T05:45:58.299Z,32.90
2022-08-26T05:46:58.218Z,31.30
2022-08-26T05:47:58.209Z,32.60
2022-08-26T05:48:58.226Z,31.30
2022-08-26T05:49:58.178Z,31.00
2022-08-26T05:50:58.166Z,28.60
2022-08-26T05:51:58.156Z,30.90
2022-08-26T05:52:58.138Z,30.80
2022-08-26T05:53:58.237Z,30.20
2022-08-26T05:54:58.119Z,30.90
2022-08-26T05:55:58.200Z,30.50
2022-08-26T05:56:58.098Z,31.10
2022-08-26T05:57:58.070Z,31.90
2022-08-26T05:58:58.396Z,29.80
2022-08-26T05:59:58.057Z,29.80
2022-08-26T06:00:58.027Z,29.70
2022-08-26T06:01:58.041Z,30.40
2022-08-26T06:02:58.059Z,29.20
2022-08-26T06:03:57.995Z,29.40
2022-08-26T06:04:57.996Z,29.00
2022-08-26T06:05:57.964Z,28.40
2022-08-26T06:06:57.959Z,28.70
2022-08-26T06:07:57.944Z,27.50
2022-08-26T06:08:57.943Z,27.90
2022-08-26T06:10:21.330Z,28.90
2022-08-26T06:10:58.897Z,27.00
2022-08-26T06:11:57.886Z,26.70
2022-08-26T06:12:57.889Z,27.30
2022-08-26T06:14:01.349Z,26.40
2022-08-26T06:14:58.887Z,26.90
2022-08-26T06:15:57.895Z,27.30
2022-08-26T06:16:57.827Z,27.50
2022-08-26T06:17:57.805Z,26.60
2022-08-26T06:18:57.804Z,26.70
2022-08-26T06:19:57.775Z,28.30
2022-08-26T06:20:58.421Z,27.70
2022-08-26T06:21:57.755Z,26.80
2022-08-26T06:22:57.745Z,27.40
2022-08-26T06:23:57.736Z,26.70
2022-08-26T06:24:57.715Z,27.60
2022-08-26T06:25:57.715Z,28.10
2022-08-26T06:26:57.694Z,27.20
2022-08-26T06:27:57.684Z,27.40
2022-08-26T06:28:57.669Z,26.70
2022-08-26T06:29:57.645Z,26.70
2022-08-26T06:30:57.680Z,26.10
2022-08-26T06:31:57.634Z,26.70
2022-08-26T06:32:57.625Z,25.50
2022-08-26T06:33:57.594Z,25.60
2022-08-26T06:34:57.584Z,25.90
2022-08-26T06:35:57.574Z,25.60
2022-08-26T06:36:57.578Z,24.90
2022-08-26T06:37:57.554Z,25.90
2022-08-26T06:38:57.534Z,24.70
2022-08-26T06:39:57.650Z,25.50
2022-08-26T06:40:59.698Z,24.20
2022-08-26T06:41:57.485Z,24.60
2022-08-26T06:42:57.494Z,25.90
2022-08-26T06:43:57.471Z,26.80
2022-08-26T06:44:57.454Z,25.00
2022-08-26T06:45:57.477Z,25.90
2022-08-26T06:46:57.426Z,26.20
2022-08-26T06:47:57.423Z,27.90
2022-08-26T06:48:57.403Z,26.20
2022-08-26T06:49:57.393Z,25.90
2022-08-26T06:50:57.384Z,24.40
2022-08-26T06:51:57.373Z,25.70
2022-08-26T06:52:57.373Z,25.50
2022-08-26T06:53:57.344Z,25.20
2022-08-26T06:54:57.322Z,26.40
2022-08-26T06:55:57.312Z,25.60
2022-08-26T06:56:57.305Z,25.10
2022-08-26T06:57:57.294Z,24.40
2022-08-26T06:58:57.283Z,25.50
2022-08-26T06:59:57.263Z,25.40
2022-08-26T07:01:01.982Z,24.50
2022-08-26T07:01:58.258Z,24.30
2022-08-26T07:02:57.269Z,23.40
2022-08-26T07:03:57.230Z,25.80
2022-08-26T07:04:57.192Z,25.40
2022-08-26T07:05:57.184Z,25.70
2022-08-26T07:06:57.461Z,25.80
2022-08-26T07:07:57.154Z,25.20
2022-08-26T07:08:57.164Z,24.20
2022-08-26T07:09:57.141Z,25.30
2022-08-26T07:10:57.125Z,24.90
2022-08-26T07:11:57.119Z,25.60
2022-08-26T07:12:57.089Z,25.40
2022-08-26T07:13:57.082Z,25.20
2022-08-26T07:14:57.069Z,28.60
2022-08-26T07:15:57.265Z,25.90
2022-08-26T07:16:57.031Z,25.00
2022-08-26T07:17:57.031Z,24.40
2022-08-26T07:18:57.001Z,25.10
2022-08-26T07:19:57.013Z,25.00
2022-08-26T07:20:56.972Z,25.20
2022-08-26T07:21:56.971Z,25.10
2022-08-26T07:22:56.952Z,25.30
2022-08-26T07:24:00.546Z,23.70
2022-08-26T07:24:56.926Z,25.10
2022-08-26T07:25:56.942Z,24.00
2022-08-26T07:26:56.901Z,23.30
2022-08-26T07:27:56.890Z,23.20
2022-08-26T07:28:56.871Z,25.70
2022-08-26T07:29:56.865Z,24.60
2022-08-26T07:30:56.920Z,23.70
2022-08-26T07:31:56.906Z,23.40
2022-08-26T07:32:56.820Z,23.20
2022-08-26T07:33:56.832Z,23.60
2022-08-26T07:34:56.791Z,23.70
2022-08-26T07:35:56.793Z,23.20
2022-08-26T07:36:56.814Z,24.40
2022-08-26T07:37:57.254Z,23.90
2022-08-26T07:38:56.739Z,23.70
2022-08-26T07:39:56.781Z,23.40
2022-08-26T07:40:56.711Z,24.30
2022-08-26T07:41:56.740Z,24.10
2022-08-26T07:42:56.690Z,24.80
2022-08-26T07:43:56.688Z,24.80
2022-08-26T07:44:56.669Z,24.20
2022-08-26T07:45:56.681Z,23.10
2022-08-26T07:46:56.642Z,23.80
2022-08-26T07:47:56.670Z,23.70
2022-08-26T07:48:56.609Z,25.10
2022-08-26T07:49:56.608Z,23.20
2022-08-26T07:50:56.591Z,23.50
2022-08-26T07:51:56.580Z,23.40
2022-08-26T07:52:56.577Z,22.40
2022-08-26T07:53:56.548Z,23.30
2022-08-26T07:54:56.587Z,22.50
2022-08-26T07:55:56.529Z,22.70
2022-08-26T07:56:56.509Z,23.90
2022-08-26T07:57:56.520Z,21.40
2022-08-26T07:58:56.482Z,20.70
2022-08-26T07:59:56.675Z,21.90
2022-08-26T08:00:56.460Z,21.90
2022-08-26T08:01:56.478Z,20.20
2022-08-26T08:02:56.454Z,21.50
2022-08-26T08:03:56.438Z,22.00
2022-08-26T08:04:56.452Z,20.30
2022-08-26T08:05:56.389Z,19.70
2022-08-26T08:06:56.374Z,19.20
2022-08-26T08:08:00.869Z,19.90
2022-08-26T08:08:57.359Z,19.50
2022-08-26T08:09:56.339Z,19.30
2022-08-26T08:10:56.329Z,19.30
2022-08-26T08:11:56.322Z,19.20
2022-08-26T08:12:56.331Z,19.60
2022-08-26T08:13:56.899Z,19.70
2022-08-26T08:14:56.278Z,20.10
2022-08-26T08:15:56.258Z,18.50
2022-08-26T08:16:56.308Z,20.00
2022-08-26T08:17:58.845Z,18.80
2022-08-26T08:18:56.225Z,19.30
2022-08-26T08:19:56.228Z,18.70
2022-08-26T08:21:10.808Z,20.00
2022-08-26T08:21:57.178Z,18.40
2022-08-26T08:22:56.174Z,18.30
2022-08-26T08:23:56.149Z,19.70
2022-08-26T08:24:56.180Z,19.00
2022-08-26T08:25:56.128Z,18.10
2022-08-26T08:26:56.178Z,18.20
2022-08-26T08:27:56.106Z,17.80
2022-08-26T08:28:56.098Z,16.80
2022-08-26T08:29:56.071Z,17.00
2022-08-26T08:30:56.120Z,17.90
2022-08-26T08:31:58.469Z,17.90
2022-08-26T08:32:56.037Z,17.50
2022-08-26T08:33:56.025Z,18.70
2022-08-26T08:34:56.019Z,18.60
2022-08-26T08:35:56.017Z,16.90
2022-08-26T08:36:55.987Z,17.50
2022-08-26T08:37:56.006Z,20.00
2022-08-26T08:38:55.965Z,17.90
2022-08-26T08:39:55.980Z,18.70
2022-08-26T08:40:55.938Z,17.60
2022-08-26T08:41:55.928Z,17.60
2022-08-26T08:42:55.920Z,17.70
2022-08-26T08:43:55.896Z,17.60
2022-08-26T08:44:55.885Z,18.00
2022-08-26T08:45:55.977Z,17.10
2022-08-26T08:46:55.864Z,17.00
2022-08-26T08:47:55.837Z,16.70
2022-08-26T08:48:55.836Z,17.00
2022-08-26T08:49:55.835Z,16.70
2022-08-26T08:50:55.815Z,16.10
2022-08-26T08:51:55.824Z,16.00
2022-08-26T08:52:55.803Z,17.00
2022-08-26T08:53:55.757Z,16.90
2022-08-26T08:54:55.761Z,16.90
2022-08-26T08:55:55.734Z,16.50
2022-08-26T08:56:55.723Z,18.00
2022-08-26T08:57:55.717Z,17.50
2022-08-26T08:58:57.018Z,18.90
2022-08-26T08:59:55.675Z,18.40
2022-08-26T09:00:55.742Z,18.70
2022-08-26T09:01:55.658Z,18.30
2022-08-26T09:02:55.655Z,18.20
2022-08-26T09:03:55.633Z,18.60
2022-08-26T09:04:55.623Z,18.20
2022-08-26T09:05:55.606Z,17.90
2022-08-26T09:06:55.603Z,18.10
2022-08-26T09:07:55.575Z,18.40
2022-08-26T09:08:55.575Z,17.30
2022-08-26T09:09:55.556Z,16.60
2022-08-26T09:10:55.544Z,16.90
2022-08-26T09:11:55.524Z,17.40
2022-08-26T09:12:55.526Z,17.00
2022-08-26T09:13:55.524Z,16.60
2022-08-26T09:14:55.495Z,18.90
2022-08-26T09:15:55.474Z,18.70
2022-08-26T09:16:55.487Z,18.10
2022-08-26T09:17:55.454Z,17.80
2022-08-26T09:18:55.442Z,18.60
2022-08-26T09:19:55.436Z,17.90
2022-08-26T09:20:55.415Z,18.00
2022-08-26T09:21:55.395Z,17.80
2022-08-26T09:22:55.385Z,17.40
2022-08-26T09:23:55.382Z,17.60
2022-08-26T09:24:55.373Z,18.70
2022-08-26T09:25:55.353Z,17.60
2022-08-26T09:26:55.345Z,18.00
2022-08-26T09:27:55.314Z,18.20
2022-08-26T09:28:55.305Z,18.00
2022-08-26T09:29:55.294Z,17.40
2022-08-26T09:30:55.389Z,17.30
2022-08-26T09:31:55.264Z,17.10
2022-08-26T09:32:55.906Z,17.20
2022-08-26T09:33:55.235Z,17.50
2022-08-26T09:34:55.245Z,16.20
2022-08-26T09:35:55.231Z,16.80
2022-08-26T09:36:55.203Z,17.90
2022-08-26T09:37:55.187Z,16.90
2022-08-26T09:38:55.178Z,16.00
2022-08-26T09:39:55.225Z,16.00
2022-08-26T09:40:56.233Z,16.30
2022-08-26T09:41:55.144Z,16.00
2022-08-26T09:42:55.123Z,15.00
2022-08-26T09:43:55.104Z,15.20
2022-08-26T09:44:55.108Z,15.40
2022-08-26T09:45:59.082Z,16.00
2022-08-26T09:46:55.103Z,15.80
2022-08-26T09:47:55.053Z,15.20
2022-08-26T09:48:55.043Z,14.80
2022-08-26T09:49:55.032Z,15.50
2022-08-26T09:50:55.024Z,18.60
2022-08-26T09:51:55.005Z,19.50
2022-08-26T09:52:55.042Z,22.30
2022-08-26T09:53:54.984Z,20.50
2022-08-26T09:54:54.963Z,20.90
2022-08-26T09:55:54.960Z,21.90
2022-08-26T09:56:54.943Z,20.80
2022-08-26T09:57:54.946Z,20.80
2022-08-26T09:58:54.906Z,21.10
2022-08-26T09:59:54.902Z,21.50
2022-08-26T10:00:54.923Z,20.50
2022-08-26T10:01:54.954Z,21.00
2022-08-26T10:02:57.971Z,20.10
2022-08-26T10:03:54.887Z,19.20
2022-08-26T10:04:54.830Z,18.20
2022-08-26T10:05:54.912Z,18.50
2022-08-26T10:06:54.882Z,18.80
2022-08-26T10:07:54.880Z,19.50
2022-08-26T10:08:54.894Z,20.80
2022-08-26T10:09:54.864Z,20.40
2022-08-26T10:10:54.761Z,18.40
2022-08-26T10:11:54.741Z,18.60
2022-08-26T10:12:54.724Z,18.50
2022-08-26T10:13:54.723Z,18.00
2022-08-26T10:14:54.713Z,17.70
2022-08-26T10:15:54.694Z,18.40
2022-08-26T10:16:54.712Z,17.40
2022-08-26T10:17:54.665Z,16.90
2022-08-26T10:18:59.838Z,15.60
2022-08-26T10:19:57.604Z,16.50
2022-08-26T10:20:54.622Z,15.70
2022-08-26T10:21:54.619Z,15.90
2022-08-26T10:22:54.592Z,15.10
2022-08-26T10:23:54.584Z,15.30
2022-08-26T10:24:55.296Z,13.90
2022-08-26T10:25:57.948Z,13.10
2022-08-26T10:26:54.550Z,12.80
2022-08-26T10:27:54.531Z,11.80
2022-08-26T10:28:54.512Z,12.30
2022-08-26T10:29:54.501Z,12.00
2022-08-26T10:30:54.510Z,11.80
2022-08-26T10:31:54.511Z,10.80
2022-08-26T10:32:54.474Z,10.90
2022-08-26T10:33:58.657Z,11.70
2022-08-26T10:34:55.442Z,12.80
2022-08-26T10:35:54.442Z,13.90
2022-08-26T10:37:13.810Z,14.40
2022-08-26T10:37:55.410Z,15.20
2022-08-26T10:38:54.397Z,13.60
2022-08-26T10:39:58.549Z,12.90
2022-08-26T10:40:54.362Z,12.90
2022-08-26T10:41:54.383Z,12.30
2022-08-26T10:42:54.348Z,10.70
2022-08-26T10:43:54.321Z,10.80
2022-08-26T10:44:54.309Z,9.70
2022-08-26T10:45:54.344Z,8.40
2022-08-26T10:46:54.281Z,7.90
2022-08-26T10:47:54.293Z,7.80
2022-08-26T10:48:54.252Z,7.20
2022-08-26T10:49:58.702Z,7.30
2022-08-26T10:50:55.233Z,7.40
2022-08-26T10:51:54.222Z,6.90
2022-08-26T10:52:54.228Z,7.20
2022-08-26T10:53:54.216Z,6.60
2022-08-26T10:54:54.189Z,6.70
2022-08-26T10:55:54.180Z,7.60
2022-08-26T10:56:54.151Z,6.60
2022-08-26T10:57:54.162Z,7.00
2022-08-26T10:58:54.150Z,7.10
2022-08-26T10:59:54.145Z,7.70
2022-08-26T11:00:54.152Z,7.60
2022-08-26T11:01:54.090Z,8.10
2022-08-26T11:02:54.082Z,8.40
2022-08-26T11:03:54.141Z,8.00
2022-08-26T11:04:54.050Z,7.00
2022-08-26T11:05:54.050Z,7.80
2022-08-26T11:06:54.028Z,8.50
2022-08-26T11:07:54.010Z,8.40
2022-08-26T11:08:54.001Z,8.70
2022-08-26T11:09:54.002Z,10.50
2022-08-26T11:10:53.980Z,10.50
2022-08-26T11:11:53.965Z,11.20
2022-08-26T11:12:53.953Z,10.30
2022-08-26T11:13:53.940Z,10.80
2022-08-26T11:14:59.218Z,11.00
2022-08-26T11:15:54.913Z,11.70
2022-08-26T11:16:53.951Z,11.10
2022-08-26T11:17:53.890Z,11.90
2022-08-26T11:18:53.870Z,11.30
2022-08-26T11:20:03.869Z,11.50
2022-08-26T11:20:54.873Z,12.70
2022-08-26T11:21:53.832Z,11.80
2022-08-26T11:22:53.825Z,12.60
2022-08-26T11:23:53.810Z,12.40
2022-08-26T11:24:53.799Z,13.20
2022-08-26T11:25:53.809Z,11.80
2022-08-26T11:26:56.355Z,12.90
2022-08-26T11:27:53.783Z,12.30
2022-08-26T11:28:53.739Z,11.10
2022-08-26T11:29:53.731Z,11.50
2022-08-26T11:30:58.067Z,11.40
2022-08-26T11:31:53.796Z,10.60
2022-08-26T11:32:53.691Z,10.60
2022-08-26T11:33:54.234Z,9.90
2022-08-26T11:34:53.670Z,9.60
2022-08-26T11:35:53.668Z,9.00
2022-08-26T11:36:53.650Z,9.60
2022-08-26T11:37:53.642Z,8.40
2022-08-26T11:38:53.618Z,8.40
2022-08-26T11:39:55.401Z,8.70
2022-08-26T11:40:53.611Z,8.50
2022-08-26T11:41:53.578Z,8.30
2022-08-26T11:42:53.579Z,8.10
2022-08-26T11:43:53.563Z,8.10
2022-08-26T11:44:53.538Z,8.10
2022-08-26T11:45:53.546Z,7.30
2022-08-26T11:46:53.568Z,7.40
2022-08-26T11:47:53.538Z,7.90
2022-08-26T11:48:53.479Z,8.50
2022-08-26T11:49:53.488Z,8.00
2022-08-26T11:50:53.459Z,7.40
2022-08-26T11:51:53.448Z,6.90
2022-08-26T11:52:53.437Z,7.50
2022-08-26T11:53:53.448Z,7.20
2022-08-26T11:54:53.409Z,6.90
2022-08-26T11:55:53.403Z,7.30
2022-08-26T11:56:53.379Z,7.10
2022-08-26T11:57:53.378Z,7.70
2022-08-26T11:58:53.371Z,7.10
2022-08-26T11:59:53.350Z,6.80
2022-08-26T12:00:53.330Z,6.50
2022-08-26T12:01:53.356Z,5.80
2022-08-26T12:02:53.464Z,6.40
2022-08-26T12:03:53.350Z,6.60
2022-08-26T12:04:53.287Z,7.40
2022-08-26T12:05:53.276Z,6.60
2022-08-26T12:06:53.252Z,6.90
2022-08-26T12:07:53.238Z,6.80
2022-08-26T12:08:53.228Z,7.10
2022-08-26T12:09:53.257Z,6.80
2022-08-26T12:10:53.199Z,6.60
2022-08-26T12:11:53.198Z,6.60
2022-08-26T12:12:53.188Z,6.90
2022-08-26T12:13:53.158Z,6.80
2022-08-26T12:14:53.149Z,6.50
2022-08-26T12:15:53.158Z,6.60
2022-08-26T12:16:53.160Z,6.40
2022-08-26T12:17:54.462Z,6.20
2022-08-26T12:18:53.093Z,6.80
2022-08-26T12:19:53.087Z,6.20
2022-08-26T12:20:53.088Z,6.40
2022-08-26T12:21:53.068Z,6.50
2022-08-26T12:22:53.045Z,6.10
2022-08-26T12:23:53.030Z,6.30
2022-08-26T12:24:53.025Z,6.30
2022-08-26T12:25:53.007Z,6.20
2022-08-26T12:26:53.040Z,6.40
2022-08-26T12:27:54.068Z,5.90
2022-08-26T12:28:52.966Z,5.70
2022-08-26T12:29:52.949Z,5.60
2022-08-26T12:30:52.947Z,6.00
2022-08-26T12:31:52.973Z,5.70
2022-08-26T12:32:58.869Z,5.20
2022-08-26T12:33:53.947Z,5.10
2022-08-26T12:34:52.939Z,5.90
2022-08-26T12:35:56.567Z,5.90
2022-08-26T12:36:52.935Z,5.80
2022-08-26T12:37:52.867Z,5.70
2022-08-26T12:38:54.535Z,5.10
2022-08-26T12:39:52.874Z,4.90
2022-08-26T12:40:52.826Z,5.30
2022-08-26T12:41:52.797Z,4.70
2022-08-26T12:42:52.807Z,5.20
2022-08-26T12:43:52.778Z,5.00
2022-08-26T12:44:54.019Z,5.40
2022-08-26T12:45:52.782Z,5.20
2022-08-26T12:46:52.741Z,5.00
2022-08-26T12:47:52.728Z,4.60
2022-08-26T12:48:52.728Z,4.90
2022-08-26T12:49:52.697Z,5.20
2022-08-26T12:50:52.688Z,4.80
2022-08-26T12:51:52.680Z,5.10
2022-08-26T12:52:52.657Z,5.30
2022-08-26T12:53:52.677Z,5.40
2022-08-26T12:54:56.682Z,5.10
2022-08-26T12:55:52.626Z,5.00
2022-08-26T12:56:52.610Z,4.70
2022-08-26T12:57:52.608Z,4.40
2022-08-26T12:59:52.677Z,4.50
2022-08-26T13:00:52.658Z,4.40
2022-08-26T13:01:52.732Z,4.10
2022-08-26T13:02:52.529Z,4.10